Stony Rapids Airport
CYSF : now visible

Airfield :











YOU CAN JOIN US ON...

 
LOGIN :

Register | Disclaimer

   EN    FR    IT 

 









Legend :    VFR   Marginal VFR   IFR   Intensive IFR   Very Intensive IFR
Visi :
Ceiling :
>= 8 km
>= 3000ft
5 to 8 km
1000 to 3000 ft
1500m to 5 km
500 to 1000 ft
800 to 1500m
200 to 500 ft
< 800m
< 200 ft
Symbols :   Thunderstorms  Fog  Heavy snow  Heavy precipitations  Wind > 20 kt







- Airport Elevation : 805 ft
- IATA code : YSF


CYSF - Stony Rapids

CURRENT METAR :
  • 201000Z AUTO 07004KT 9SM CLR 10/06 A2966 RMK SLP054

EXPIRED METARs :
  • 200900Z AUTO VRB03KT 9SM FEW085 12/06 A2968 RMK SLP058 DENSITY ALT 900FT
  • 200800Z AUTO 18009KT 9SM FEW070 13/06 A2969 RMK SLP061 DENSITY ALT 1000FT

TAF TAF CYSF
Valid from the 20 at 06:00 until the 20 at 18:00 UTC


200538Z 2006/2018 14005KT P6SM SKC
PROB30 2009/2015 1/2SM FG VV002
FM201600 24008KT P6SM FEW040 SCT080 BKN200
TEMPO 2016/2018 BKN060 BKN100 RMK FCST BASED ON AUTO OBS. NXT FCST BY 201200Z
No reported NOTAMs for that airfield.



MET'MAP, your aeronautical weather chart ! - Copyright ORBIFLY December 2007 - Disclaimer

ORBIFLY MET'MAP TEAM :

Programming & Development : Alexandra Zaïnal
Concept & Development : Baudouin d'Aumeries
Co-Development & Prog : Marc-Olivier Méhu
Technical & hardware support : Manuel Goepfert

Contact : metmap@orbifly.com




SOURCES & CREDITS :

   NOAA       Earth
Advisory